Time;durP1;ratioP1;P1;durP2;ratioP2;P2;SDS_P1;SDS_P2;PMS_P1;PMS_P2;Temp;Humidity;BMP_temperature;BMP_pressure;BME280_temperature;BME280_humidity;BME280_pressure;Samples;Min_cycle;Max_cycle;Signal;HPM_P1;HPM_P2
2021/05/29 00:00:48;;;;;;;29.15;7.25;;;;;;;18.39;61.91;100660.53;4919165;29;20457;-67
2021/05/29 00:03:16;;;;;;;20.55;6.32;;;;;;;18.52;61.60;100679.34;4919057;29;20059;-69
2021/05/29 00:05:44;;;;;;;23.30;6.45;;;;;;;18.53;61.68;100666.03;4919057;29;20145;-64
2021/05/29 00:08:12;;;;;;;18.08;5.15;;;;;;;18.53;61.86;100660.38;4919359;29;20119;-63
2021/05/29 00:10:41;;;;;;;21.90;5.88;;;;;;;18.50;61.65;100661.88;4919046;29;20075;-63
2021/05/29 00:13:10;;;;;;;14.13;5.97;;;;;;;18.52;61.82;100665.19;4918872;29;20044;-67
2021/05/29 00:15:39;;;;;;;24.63;6.00;;;;;;;18.17;61.44;100600.16;4918617;29;20135;-61
2021/05/29 00:18:07;;;;;;;15.30;5.25;;;;;;;18.62;61.77;100658.38;4918570;29;20054;-60
2021/05/29 00:20:39;;;;;;;12.70;4.97;;;;;;;18.62;61.68;100652.72;4918855;29;20123;-60
2021/05/29 00:23:07;;;;;;;30.17;6.68;;;;;;;18.51;61.35;100640.91;4918847;29;20055;-61
2021/05/29 00:25:35;;;;;;;16.17;6.97;;;;;;;18.47;61.35;100646.41;4918474;29;20048;-61
2021/05/29 00:28:03;;;;;;;19.33;5.55;;;;;;;18.41;61.18;100659.03;4918675;29;20102;-66
2021/05/29 00:30:30;;;;;;;14.45;5.78;;;;;;;18.32;61.46;100652.53;4918566;29;20453;-66
2021/05/29 00:32:57;;;;;;;20.13;7.57;;;;;;;18.34;61.31;100657.88;4917614;29;20131;-66
2021/05/29 00:35:24;;;;;;;18.52;5.88;;;;;;;18.33;61.36;100659.88;4918425;29;20056;-68
2021/05/29 00:37:51;;;;;;;19.83;6.15;;;;;;;18.28;61.34;100662.84;4918518;29;20052;-64
2021/05/29 00:40:18;;;;;;;25.50;7.07;;;;;;;18.26;61.73;100664.34;4917133;29;20504;-64
2021/05/29 00:42:45;;;;;;;16.83;5.03;;;;;;;18.24;61.47;100648.53;4918407;29;20445;-66
2021/05/29 00:45:13;;;;;;;21.58;5.55;;;;;;;18.21;61.72;100640.72;4918700;29;20123;-66
2021/05/29 00:47:39;;;;;;;24.05;6.00;;;;;;;18.16;61.40;100623.94;4918566;29;20048;-67
2021/05/29 00:50:10;;;;;;;13.48;5.78;;;;;;;18.26;61.47;100642.56;4918145;29;20059;-67
2021/05/29 00:52:37;;;;;;;20.13;6.60;;;;;;;18.24;61.70;100653.38;4918146;29;20086;-66
2021/05/29 00:55:12;;;;;;;15.70;5.03;;;;;;;18.22;61.42;100650.88;4918069;29;20044;-66
2021/05/29 00:57:48;;;;;;;20.92;6.78;;;;;;;18.23;61.50;100654.53;4918208;29;20490;-65
2021/05/29 01:00:18;;;;;;;14.73;4.82;;;;;;;18.21;61.56;100648.38;4900358;29;20150;-65
2021/05/29 01:02:46;;;;;;;20.27;6.20;;;;;;;18.20;62.10;100650.38;4917900;29;20084;-68
2021/05/29 01:05:16;;;;;;;11.68;5.00;;;;;;;18.20;61.91;100653.19;4918197;29;20083;-66
2021/05/29 01:07:49;;;;;;;18.33;5.63;;;;;;;18.17;62.04;100656.66;4917831;29;20139;-66
2021/05/29 01:10:18;;;;;;;13.82;4.68;;;;;;;18.02;62.49;100628.03;4917681;29;20135;-67
2021/05/29 01:12:46;;;;;;;16.60;6.22;;;;;;;18.04;62.18;100637.84;4918488;29;20048;-63
2021/05/29 01:15:15;;;;;;;16.42;5.60;;;;;;;18.10;62.34;100642.19;4900802;29;20131;-65
2021/05/29 01:17:42;;;;;;;18.90;5.13;;;;;;;18.11;62.59;100646.69;4918036;29;20136;-65
2021/05/29 01:20:11;;;;;;;15.43;4.70;;;;;;;18.20;62.76;100649.53;4917512;29;20087;-65
2021/05/29 01:22:39;;;;;;;18.38;6.40;;;;;;;18.11;62.72;100643.84;4917576;29;20140;-64
2021/05/29 01:25:17;;;;;;;15.20;6.33;;;;;;;18.22;62.19;100653.72;4917626;29;20135;-63
2021/05/29 01:27:45;;;;;;;21.05;5.55;;;;;;;18.15;61.97;100653.38;4917676;29;20381;-63
2021/05/29 01:30:13;;;;;;;17.17;5.63;;;;;;;17.95;62.78;100648.31;4917527;29;20087;-63
2021/05/29 01:32:40;;;;;;;16.83;6.20;;;;;;;17.65;62.69;100622.59;4917473;29;20551;-69
2021/05/29 01:35:11;;;;;;;16.25;5.97;;;;;;;17.69;62.97;100648.19;4917628;29;20531;-60
2021/05/29 01:37:41;;;;;;;23.75;5.20;;;;;;;17.59;63.29;100642.84;4917309;29;20139;-66
2021/05/29 01:40:08;;;;;;;;;;;;;;;17.64;62.65;100648.31;4918021;29;20083;-69
2021/05/29 01:42:37;;;;;;;22.67;6.03;;;;;;;17.53;63.36;100644.97;4917467;29;19929;-63
2021/05/29 01:45:08;;;;;;;17.10;6.43;;;;;;;17.52;63.04;100648.94;4917572;29;20416;-63
2021/05/29 01:47:40;;;;;;;21.50;6.18;;;;;;;17.48;62.83;100639.47;4917082;29;20063;-63
2021/05/29 01:50:08;;;;;;;20.73;5.68;;;;;;;17.60;62.77;100645.31;4917126;29;20096;-60
2021/05/29 01:52:47;;;;;;;13.05;6.07;;;;;;;17.56;63.21;100638.66;4917009;29;20134;-64
2021/05/29 01:55:15;;;;;;;19.75;6.07;;;;;;;17.58;62.79;100646.81;4900103;29;20087;-62
2021/05/29 01:57:42;;;;;;;14.38;6.82;;;;;;;17.66;63.01;100652.50;4917128;29;20135;-70
2021/05/29 02:00:10;;;;;;;19.58;6.53;;;;;;;17.74;62.72;100653.69;4917160;29;20122;-67
2021/05/29 02:02:37;;;;;;;20.95;6.90;;;;;;;17.63;63.20;100639.03;4916979;29;20135;-68
2021/05/29 02:05:13;;;;;;;17.10;6.70;;;;;;;17.66;63.19;100649.66;4917087;29;20052;-72
2021/05/29 02:07:40;;;;;;;20.02;5.80;;;;;;;17.42;63.52;100633.13;4916913;29;20139;-64
2021/05/29 02:10:10;;;;;;;14.68;5.68;;;;;;;17.33;64.14;100646.34;4917031;29;20076;-63
2021/05/29 02:12:43;;;;;;;18.17;6.63;;;;;;;17.16;64.89;100641.47;4916956;29;20218;-62
2021/05/29 02:15:14;;;;;;;11.93;4.25;;;;;;;16.96;65.56;100634.38;4917006;29;20067;-62
2021/05/29 02:17:43;;;;;;;17.38;6.20;;;;;;;16.81;66.18;100649.66;4916784;29;20138;-63
2021/05/29 02:20:11;;;;;;;22.13;7.55;;;;;;;16.72;65.93;100637.47;4917135;29;20123;-66
2021/05/29 02:22:38;;;;;;;11.32;4.72;;;;;;;16.78;66.04;100655.94;4916806;29;20060;-64
2021/05/29 02:25:07;;;;;;;13.40;5.83;;;;;;;16.79;65.92;100654.81;4916694;29;20048;-64
2021/05/29 02:27:34;;;;;;;17.77;8.15;;;;;;;16.71;66.33;100658.34;4916465;29;20139;-63
2021/05/29 02:30:03;;;;;;;19.13;7.93;;;;;;;16.76;66.22;100647.00;4917012;29;20127;-65
2021/05/29 02:32:30;;;;;;;19.45;7.53;;;;;;;16.60;66.75;100665.41;4915626;29;20131;-64
2021/05/29 02:34:57;;;;;;;23.80;9.57;;;;;;;16.60;66.45;100668.22;4916692;29;20087;-64
2021/05/29 02:37:24;;;;;;;9.43;4.80;;;;;;;16.40;67.43;100658.25;4916820;29;20103;-65
2021/05/29 02:39:51;;;;;;;17.23;6.83;;;;;;;16.32;67.69;100662.66;4916783;29;20236;-64
2021/05/29 02:42:18;;;;;;;16.17;7.63;;;;;;;16.15;68.22;100633.47;4916644;29;20136;-65
2021/05/29 02:44:45;;;;;;;18.50;7.23;;;;;;;16.05;69.07;100652.25;4916500;29;20131;-63
2021/05/29 02:47:12;;;;;;;15.97;5.67;;;;;;;15.93;69.31;100648.31;4916502;29;20143;-63
2021/05/29 02:49:40;;;;;;;19.87;7.13;;;;;;;15.83;69.75;100650.22;4916460;29;20059;-63
2021/05/29 02:52:06;;;;;;;21.67;7.57;;;;;;;15.98;69.40;100651.03;4916777;29;20123;-64
2021/05/29 02:54:40;;;;;;;19.47;8.37;;;;;;;15.99;69.24;100656.34;4917597;29;20080;-63
2021/05/29 02:57:09;;;;;;;16.73;7.37;;;;;;;16.01;69.30;100656.03;4916419;29;20127;-64
2021/05/29 02:59:37;;;;;;;9.55;5.63;;;;;;;15.95;69.30;100654.47;4916515;29;20139;-63
2021/05/29 03:02:05;;;;;;;10.93;6.20;;;;;;;15.58;69.85;100614.09;4916301;29;20131;-63
2021/05/29 03:04:33;;;;;;;14.07;7.80;;;;;;;16.02;68.96;100657.69;4917407;29;20445;-63
2021/05/29 03:07:00;;;;;;;23.43;8.43;;;;;;;16.05;68.90;100668.34;4916469;29;20155;-66
2021/05/29 03:09:28;;;;;;;24.30;9.57;;;;;;;16.00;69.06;100645.91;4916599;29;20052;-64
2021/05/29 03:11:56;;;;;;;23.00;8.87;;;;;;;16.17;68.81;100668.66;4916255;29;20098;-64
2021/05/29 03:14:23;;;;;;;22.20;8.77;;;;;;;16.28;68.08;100667.25;4914999;29;20104;-64
2021/05/29 03:16:50;;;;;;;24.40;10.27;;;;;;;16.20;67.89;100653.06;4916188;29;20135;-63
2021/05/29 03:19:18;;;;;;;21.80;8.30;;;;;;;16.27;68.09;100671.25;4915080;29;20134;-63
2021/05/29 03:21:45;;;;;;;31.03;9.37;;;;;;;16.19;68.40;100668.31;4916321;29;20127;-62
2021/05/29 03:24:12;;;;;;;21.90;9.33;;;;;;;16.29;67.86;100668.91;4919246;29;20143;-66
2021/05/29 03:26:39;;;;;;;28.20;10.40;;;;;;;16.40;67.73;100674.31;4919569;29;20135;-77
2021/05/29 03:29:06;;;;;;;16.83;9.67;;;;;;;16.28;68.32;100681.34;4919748;29;20052;-78
2021/05/29 03:31:33;;;;;;;22.43;8.60;;;;;;;16.21;68.57;100680.13;4919650;29;20051;-72
2021/05/29 03:34:00;;;;;;;15.90;7.20;;;;;;;16.21;68.12;100675.31;4918393;29;20048;-75
2021/05/29 03:36:27;;;;;;;16.63;8.20;;;;;;;16.12;68.73;100677.19;4919577;29;20106;-75
2021/05/29 03:38:54;;;;;;;22.03;9.17;;;;;;;15.97;69.48;100678.38;4919452;29;20052;-66
2021/05/29 03:41:21;;;;;;;20.87;8.50;;;;;;;15.98;69.46;100674.38;4919505;29;20084;-65
2021/05/29 03:43:48;;;;;;;23.20;9.80;;;;;;;16.03;69.08;100681.88;4919235;29;20084;-65
2021/05/29 03:46:15;;;;;;;17.87;9.27;;;;;;;16.23;68.46;100669.34;4919181;29;20048;-65
2021/05/29 03:48:42;;;;;;;27.27;8.30;;;;;;;16.37;67.85;100670.16;4919280;29;20052;-65
2021/05/29 03:51:09;;;;;;;26.97;8.80;;;;;;;16.42;67.87;100674.84;4919489;29;20442;-66
2021/05/29 03:53:36;;;;;;;21.73;8.63;;;;;;;16.44;67.69;100661.25;4919160;29;20088;-66
2021/05/29 03:56:03;;;;;;;30.33;8.43;;;;;;;16.57;67.45;100674.47;4919078;29;20083;-65
2021/05/29 03:58:31;;;;;;;23.30;7.57;;;;;;;16.59;67.35;100673.03;4919310;29;20080;-65
2021/05/29 04:00:59;;;;;;;16.03;8.60;;;;;;;16.53;67.30;100670.63;4918954;29;20136;-65
2021/05/29 04:03:26;;;;;;;12.53;5.70;;;;;;;16.37;67.62;100655.22;4919410;29;20052;-65
2021/05/29 04:05:53;;;;;;;19.43;7.27;;;;;;;16.37;67.81;100674.97;4918983;29;20072;-63
2021/05/29 04:08:20;;;;;;;17.27;6.67;;;;;;;16.35;67.55;100664.00;4919258;29;20052;-64
2021/05/29 04:10:48;;;;;;;22.10;7.10;;;;;;;16.33;67.90;100671.94;4918912;29;20131;-64
2021/05/29 04:13:16;;;;;;;18.40;6.80;;;;;;;16.22;68.12;100662.06;4919064;29;20071;-64
2021/05/29 04:15:43;;;;;;;27.33;6.70;;;;;;;16.30;67.74;100673.41;4918729;29;20151;-64
2021/05/29 04:18:10;;;;;;;27.63;7.03;;;;;;;16.43;67.58;100674.53;4918640;29;20144;-64
2021/05/29 04:20:36;;;;;;;19.90;6.53;;;;;;;16.53;67.25;100681.91;4919369;29;20130;-64
2021/05/29 04:23:03;;;;;;;16.00;7.60;;;;;;;16.62;66.89;100682.84;4917586;29;20048;-63
2021/05/29 04:25:30;;;;;;;18.75;8.25;;;;;;;16.69;66.86;100679.59;4918855;29;20085;-67
2021/05/29 04:27:58;;;;;;;21.13;7.63;;;;;;;16.65;66.58;100651.19;4918796;29;20139;-69
2021/05/29 04:30:28;;;;;;;22.08;8.43;;;;;;;16.92;66.77;100686.06;4918700;29;20126;-70
2021/05/29 04:32:56;;;;;;;20.08;7.95;;;;;;;17.01;66.80;100687.00;4901735;29;20101;-68
2021/05/29 04:35:24;;;;;;;22.30;8.10;;;;;;;17.16;66.57;100697.91;4918726;29;20048;-65
2021/05/29 04:37:51;;;;;;;21.35;8.15;;;;;;;17.13;66.32;100690.06;4902554;29;20136;-67
2021/05/29 04:40:22;;;;;;;22.90;8.57;;;;;;;17.18;65.93;100684.28;4918646;29;20146;-67
2021/05/29 04:42:50;;;;;;;16.58;7.72;;;;;;;17.23;65.93;100687.00;4918887;29;20556;-65
2021/05/29 04:45:17;;;;;;;21.52;8.27;;;;;;;17.24;65.89;100683.00;4918131;29;20485;-65
2021/05/29 04:47:44;;;;;;;17.30;7.70;;;;;;;17.34;65.61;100693.19;4918104;29;20139;-70
2021/05/29 04:50:12;;;;;;;21.27;7.90;;;;;;;17.44;65.46;100697.75;4918194;29;20083;-73
2021/05/29 04:52:40;;;;;;;14.73;6.82;;;;;;;17.48;65.42;100701.59;4918112;29;20087;-65
2021/05/29 04:55:08;;;;;;;23.05;9.35;;;;;;;17.53;65.51;100707.06;4918308;29;20048;-63
2021/05/29 04:57:35;;;;;;;22.23;7.63;;;;;;;17.59;65.19;100707.78;4918027;29;20079;-68
2021/05/29 05:00:06;;;;;;;23.55;7.60;;;;;;;17.62;65.05;100707.97;4918180;29;20059;-66
2021/05/29 05:02:33;;;;;;;20.75;7.93;;;;;;;17.61;65.19;100717.59;4918222;29;20044;-68
2021/05/29 05:05:00;;;;;;;19.27;8.07;;;;;;;17.64;64.98;100714.13;4918148;29;20072;-65
2021/05/29 05:07:27;;;;;;;16.40;7.32;;;;;;;17.52;64.82;100699.78;4917861;29;20148;-71
2021/05/29 05:09:53;;;;;;;17.90;7.30;;;;;;;17.60;64.73;100723.56;4917951;29;20488;-64
2021/05/29 05:12:20;;;;;;;21.00;8.23;;;;;;;17.50;64.75;100707.72;4918846;29;20076;-63
2021/05/29 05:14:47;;;;;;;18.30;7.57;;;;;;;17.63;64.68;100729.38;4917681;29;20143;-66
2021/05/29 05:17:14;;;;;;;18.52;8.52;;;;;;;17.61;64.83;100728.91;4917669;29;20079;-65
2021/05/29 05:19:41;;;;;;;20.05;8.13;;;;;;;17.31;64.46;100691.03;4917641;29;20139;-64
2021/05/29 05:22:08;;;;;;;25.52;9.75;;;;;;;17.53;64.28;100721.19;4917629;29;20052;-71
2021/05/29 05:24:35;;;;;;;17.58;8.30;;;;;;;17.52;64.31;100728.84;4917605;29;20507;-67
2021/05/29 05:27:02;;;;;;;22.17;9.15;;;;;;;17.56;64.29;100720.56;4917549;29;20048;-64
2021/05/29 05:29:29;;;;;;;30.63;9.20;;;;;;;17.60;64.58;100734.84;4918679;29;20136;-63
2021/05/29 05:31:56;;;;;;;21.50;8.52;;;;;;;17.62;64.44;100738.19;4917579;29;20159;-63
2021/05/29 05:34:23;;;;;;;21.60;8.98;;;;;;;17.36;64.77;100695.69;4917445;29;20095;-67
2021/05/29 05:36:49;;;;;;;32.95;10.55;;;;;;;17.68;64.66;100742.56;4917593;29;20048;-67
2021/05/29 05:39:16;;;;;;;26.67;8.40;;;;;;;17.71;64.21;100741.91;4901009;29;20249;-60
2021/05/29 05:41:43;;;;;;;30.42;9.52;;;;;;;17.73;64.25;100740.41;4917343;29;20127;-58
2021/05/29 05:44:10;;;;;;;20.63;9.27;;;;;;;17.77;64.19;100740.63;4918441;29;20462;-58
2021/05/29 05:46:37;;;;;;;20.98;9.38;;;;;;;17.64;63.89;100728.25;4916739;29;20142;-59
2021/05/29 05:49:05;;;;;;;19.15;8.52;;;;;;;17.80;63.99;100744.78;4917020;29;20159;-60
2021/05/29 05:51:33;;;;;;;32.22;10.07;;;;;;;17.82;64.11;100756.63;4917167;29;20496;-60
2021/05/29 05:54:01;;;;;;;15.57;7.97;;;;;;;17.84;64.02;100752.28;4917129;29;20056;-59
2021/05/29 05:56:28;;;;;;;26.33;8.98;;;;;;;17.88;63.81;100752.47;4916908;29;20135;-59
2021/05/29 05:58:56;;;;;;;18.30;8.75;;;;;;;17.85;63.83;100748.31;4917266;29;20084;-60
2021/05/29 06:01:25;;;;;;;29.00;8.70;;;;;;;17.64;63.99;100714.13;4916985;29;20140;-58
2021/05/29 06:03:53;;;;;;;26.63;10.30;;;;;;;17.80;63.42;100739.16;4917093;29;20108;-74
2021/05/29 06:06:20;;;;;;;26.20;8.00;;;;;;;17.98;63.65;100755.00;4916993;29;20052;-63
2021/05/29 06:08:48;;;;;;;19.20;8.77;;;;;;;18.02;63.90;100752.38;4916671;29;20071;-60
2021/05/29 06:11:18;;;;;;;25.08;8.18;;;;;;;17.88;63.55;100738.34;4916730;29;20138;-62
2021/05/29 06:21:45;;;;;;;21.13;7.82;;;;;;;17.77;63.47;100764.06;4916932;29;20122;-65
2021/05/29 06:24:13;;;;;;;22.48;8.95;;;;;;;17.66;63.78;100765.47;4900014;29;20103;-63
2021/05/29 06:26:40;;;;;;;17.92;7.80;;;;;;;17.60;64.03;100763.09;4900973;29;20470;-60
2021/05/29 06:29:08;;;;;;;17.77;7.70;;;;;;;17.56;64.30;100756.44;4916858;29;20241;-60
2021/05/29 06:31:35;;;;;;;19.02;8.43;;;;;;;17.50;64.16;100758.53;4916835;29;20126;-59
2021/05/29 06:34:03;;;;;;;27.60;9.63;;;;;;;17.65;64.21;100782.75;4899810;29;20126;-60
2021/05/29 06:36:30;;;;;;;23.67;9.52;;;;;;;17.62;64.52;100784.22;4916450;29;20090;-59
2021/05/29 06:38:58;;;;;;;22.45;9.98;;;;;;;17.53;64.28;100781.31;4916542;29;20147;-59
2021/05/29 06:41:26;;;;;;;25.67;9.93;;;;;;;17.54;64.20;100785.00;4916529;29;20091;-59
2021/05/29 06:43:52;;;;;;;20.83;9.65;;;;;;;17.60;64.69;100794.97;4916501;29;20147;-60
2021/05/29 06:46:20;;;;;;;21.30;10.18;;;;;;;17.44;64.73;100759.84;4916352;29;20135;-59
2021/05/29 06:48:47;;;;;;;25.52;11.00;;;;;;;17.59;64.67;100793.31;4915359;29;20493;-59
2021/05/29 06:51:32;;;;;;;20.45;10.65;;;;;;;17.69;64.34;100800.69;4916539;29;20078;-60
2021/05/29 06:54:04;;;;;;;17.70;8.30;;;;;;;17.68;64.66;100799.88;4916404;29;20143;-60
2021/05/29 06:59:16;;;;;;;29.42;9.40;;;;;;;17.86;64.19;100808.47;4905558;29;20052;-59
2021/05/29 07:01:43;;;;;;;20.35;8.88;;;;;;;17.86;64.45;100795.19;4919398;29;20079;-59
2021/05/29 07:04:11;;;;;;;32.05;10.88;;;;;;;17.91;64.31;100809.16;4887442;29;20134;-59
2021/05/29 07:06:38;;;;;;;25.13;9.77;;;;;;;17.91;64.08;100805.50;4919682;29;20119;-59
2021/05/29 07:09:04;;;;;;;28.23;10.02;;;;;;;17.88;64.22;100794.84;4919651;29;20547;-59
2021/05/29 07:11:36;;;;;;;28.00;13.40;;;;;;;18.00;64.35;100812.03;4919433;29;20142;-59
2021/05/29 07:14:05;;;;;;;20.08;10.40;;;;;;;17.87;64.18;100785.53;4919207;29;20170;-60
2021/05/29 07:16:46;;;;;;;23.35;11.60;;;;;;;18.00;64.36;100812.88;4904659;29;20048;-59
2021/05/29 07:19:13;;;;;;;27.95;13.32;;;;;;;18.05;64.23;100817.56;4919792;29;20062;-59
2021/05/29 07:21:40;;;;;;;25.58;12.00;;;;;;;17.92;64.22;100793.06;4920067;29;20044;-59
2021/05/29 07:24:07;;;;;;;33.75;14.57;;;;;;;18.03;64.00;100804.91;4918282;29;20075;-59
2021/05/29 07:26:38;;;;;;;33.45;13.93;;;;;;;18.01;63.94;100802.41;4919387;29;20037;-60
2021/05/29 07:29:05;;;;;;;29.92;11.27;;;;;;;17.99;63.84;100796.25;4919996;29;20135;-59
2021/05/29 07:31:32;;;;;;;27.52;11.95;;;;;;;18.06;64.19;100810.75;4919308;29;20083;-59
2021/05/29 07:33:59;;;;;;;28.08;12.15;;;;;;;17.95;63.92;100793.25;4919561;29;20048;-59
2021/05/29 07:36:26;;;;;;;26.30;11.52;;;;;;;18.20;63.59;100821.97;4919520;29;20075;-60
2021/05/29 07:38:53;;;;;;;35.33;13.88;;;;;;;18.24;63.56;100822.97;4918263;29;20147;-60
2021/05/29 07:41:20;;;;;;;38.22;15.07;;;;;;;18.26;63.78;100825.50;4919354;29;20080;-59
2021/05/29 07:43:47;;;;;;;36.53;16.05;;;;;;;18.31;63.63;100814.03;4919162;29;20135;-60
2021/05/29 07:46:16;;;;;;;29.63;16.80;;;;;;;18.35;63.27;100820.69;4919368;29;20079;-59
2021/05/29 07:48:44;;;;;;;32.80;15.48;;;;;;;18.31;63.69;100828.16;4919011;29;20396;-60
2021/05/29 07:51:11;;;;;;;39.17;14.40;;;;;;;18.31;63.76;100825.31;4919707;29;20450;-60
2021/05/29 07:53:40;;;;;;;36.58;16.15;;;;;;;18.18;63.55;100808.13;4919221;29;20086;-61
2021/05/29 07:56:14;;;;;;;37.22;16.42;;;;;;;18.05;63.78;100775.19;4918784;29;20135;-60
2021/05/29 07:58:41;;;;;;;39.33;15.25;;;;;;;18.27;63.44;100819.50;4919530;29;20098;-60
2021/05/29 08:01:10;;;;;;;35.75;15.32;;;;;;;18.38;63.70;100805.91;4918953;29;20099;-60
2021/05/29 08:03:37;;;;;;;40.58;15.57;;;;;;;18.52;63.21;100817.91;4918924;29;20044;-61
2021/05/29 08:06:10;;;;;;;37.38;15.52;;;;;;;18.55;63.25;100813.59;4918895;29;20505;-61
2021/05/29 08:08:37;;;;;;;40.75;18.88;;;;;;;18.76;63.10;100828.00;4918302;29;20091;-61
2021/05/29 08:11:04;;;;;;;43.28;18.02;;;;;;;18.83;63.09;100831.19;4918837;29;20128;-60
2021/05/29 08:13:31;;;;;;;46.70;17.70;;;;;;;18.81;63.30;100827.84;4918731;29;20127;-60
2021/05/29 08:15:58;;;;;;;53.38;19.30;;;;;;;18.69;62.80;100795.31;4918478;29;20056;-61
2021/05/29 08:18:25;;;;;;;42.45;18.50;;;;;;;18.68;62.82;100810.66;4918604;29;20060;-61
2021/05/29 08:20:52;;;;;;;41.50;19.70;;;;;;;18.87;63.07;100830.22;4918648;29;20056;-60
2021/05/29 08:23:19;;;;;;;42.40;17.45;;;;;;;18.80;63.16;100834.66;4918847;29;20131;-60
2021/05/29 08:25:46;;;;;;;34.88;17.48;;;;;;;18.69;62.92;100817.97;4901880;29;20139;-60
2021/05/29 08:28:14;;;;;;;50.63;18.08;;;;;;;18.83;62.89;100834.84;4918784;29;20056;-60
2021/05/29 08:30:41;;;;;;;39.53;18.10;;;;;;;18.88;62.77;100839.53;4918584;29;20445;-60
2021/05/29 08:33:08;;;;;;;41.45;17.27;;;;;;;18.89;62.75;100838.34;4918608;29;20489;-62
2021/05/29 08:35:35;;;;;;;43.70;15.60;;;;;;;18.96;62.68;100833.03;4918473;29;20044;-61
2021/05/29 08:38:03;;;;;;;37.85;15.18;;;;;;;19.06;62.63;100827.06;4918567;29;20052;-61
2021/05/29 08:40:31;;;;;;;35.33;16.00;;;;;;;19.20;62.43;100826.06;4918821;29;20079;-60
2021/05/29 08:42:58;;;;;;;38.00;16.27;;;;;;;19.32;62.29;100829.09;4918389;29;20477;-61
2021/05/29 08:45:25;;;;;;;32.92;14.52;;;;;;;19.46;62.29;100821.25;4918365;29;20048;-60
2021/05/29 08:47:51;;;;;;;34.20;14.50;;;;;;;19.72;62.12;100826.91;4918221;29;20182;-60
2021/05/29 08:50:19;;;;;;;32.17;14.73;;;;;;;20.04;61.21;100825.50;4918573;29;20048;-60
2021/05/29 08:52:48;;;;;;;32.35;15.00;;;;;;;20.58;60.64;100817.31;4918273;29;20092;-59
2021/05/29 08:55:17;;;;;;;31.10;14.68;;;;;;;21.16;59.66;100828.13;4918096;29;20485;-61
2021/05/29 08:57:46;;;;;;;31.30;13.77;;;;;;;21.47;59.45;100827.72;4918195;29;20135;-61
2021/05/29 09:00:15;;;;;;;29.20;13.35;;;;;;;;;;4918225;29;20484;-61
2021/05/29 09:02:58;;;;;;;23.33;12.77;;;;;;;22.11;58.31;100826.41;4918375;29;20079;-61
2021/05/29 09:05:52;;;;;;;31.23;13.95;;;;;;;22.45;57.01;100817.47;4917935;29;20052;-61
2021/05/29 09:08:23;;;;;;;35.08;13.05;;;;;;;22.99;55.87;100827.00;4918144;29;20408;-61
2021/05/29 09:10:56;;;;;;;27.08;12.43;;;;;;;22.97;55.15;100820.81;4918091;29;20497;-61
2021/05/29 09:13:25;;;;;;;26.52;13.13;;;;;;;23.00;54.75;100825.78;4918155;29;20056;-61
2021/05/29 09:15:59;;;;;;;27.40;11.57;;;;;;;23.09;54.51;100830.19;4917863;29;20143;-61
2021/05/29 09:18:30;;;;;;;23.55;11.80;;;;;;;23.26;54.02;100822.56;4917655;29;20054;-61
2021/05/29 09:21:23;;;;;;;25.45;11.80;;;;;;;23.49;54.09;100826.53;4916863;29;20131;-61
2021/05/29 09:24:10;;;;;;;25.75;12.02;;;;;;;23.48;53.36;100806.91;4917547;29;20080;-61
2021/05/29 09:26:46;;;;;;;25.60;11.63;;;;;;;23.68;53.67;100825.88;4917557;29;20135;-61
2021/05/29 09:29:19;;;;;;;27.73;11.95;;;;;;;23.81;52.62;100795.28;4918700;29;20083;-61
2021/05/29 09:32:06;;;;;;;25.75;13.38;;;;;;;23.98;52.13;100791.25;4917818;29;20108;-61
2021/05/29 09:34:43;;;;;;;26.90;12.45;;;;;;;24.18;51.91;100773.06;4917756;29;20060;-60
2021/05/29 09:37:26;;;;;;;24.92;12.30;;;;;;;24.75;51.13;100820.22;4917337;29;20083;-60
2021/05/29 09:39:55;;;;;;;25.77;11.43;;;;;;;25.05;50.31;100814.78;4917366;29;20094;-61
2021/05/29 09:42:34;;;;;;;19.30;11.85;;;;;;;25.14;50.32;100816.66;4917381;29;20143;-61
2021/05/29 09:45:27;;;;;;;22.10;12.70;;;;;;;25.39;49.43;100815.16;4917685;29;20048;-61
2021/05/29 09:48:16;;;;;;;26.05;11.98;;;;;;;25.29;49.52;100815.75;4917619;29;20396;-61
2021/05/29 09:51:03;;;;;;;28.33;11.85;;;;;;;25.29;49.64;100808.00;4917236;29;20568;-61
2021/05/29 09:53:33;;;;;;;29.05;12.88;;;;;;;25.61;48.99;100810.75;4917157;29;20048;-61
2021/05/29 09:56:01;;;;;;;23.40;10.75;;;;;;;25.86;47.92;100810.44;4917398;29;20051;-61
2021/05/29 09:58:50;;;;;;;23.17;10.68;;;;;;;25.93;47.89;100807.72;4917325;29;20143;-61
2021/05/29 10:01:41;;;;;;;23.52;11.80;;;;;;;25.77;47.38;100808.59;4917053;29;20140;-61
2021/05/29 10:04:14;;;;;;;22.05;11.23;;;;;;;25.72;47.22;100805.22;4914343;29;20044;-61
2021/05/29 10:06:53;;;;;;;22.20;12.45;;;;;;;25.70;47.09;100819.06;4916852;29;20065;-61
2021/05/29 10:09:21;;;;;;;26.20;12.18;;;;;;;25.69;46.93;100794.53;4916898;29;20447;-61
2021/05/29 10:11:49;;;;;;;25.48;12.15;;;;;;;25.90;46.91;100800.72;4917049;29;20135;-60
2021/05/29 10:14:16;;;;;;;24.10;11.05;;;;;;;26.26;46.09;100809.13;4917055;29;20437;-62
2021/05/29 10:16:43;;;;;;;22.98;11.38;;;;;;;26.40;46.45;100812.28;4916741;29;20132;-62
2021/05/29 10:19:11;;;;;;;22.15;10.43;;;;;;;26.79;45.95;100804.34;4917139;29;20131;-62
2021/05/29 10:21:38;;;;;;;25.33;10.60;;;;;;;27.23;45.32;100809.53;4917043;29;20164;-62
2021/05/29 10:24:06;;;;;;;17.95;9.25;;;;;;;27.61;44.58;100801.84;4917122;29;20102;-62
2021/05/29 10:26:34;;;;;;;16.13;9.82;;;;;;;27.83;44.30;100800.09;4916857;29;20052;-62
2021/05/29 10:29:03;;;;;;;18.00;9.50;;;;;;;27.97;43.94;100797.38;4916867;29;20391;-62
2021/05/29 10:31:35;;;;;;;22.55;8.82;;;;;;;28.18;43.64;100787.34;4917258;29;20135;-62
2021/05/29 10:34:06;;;;;;;20.35;8.98;;;;;;;28.39;43.14;100801.91;4920713;29;20575;-62
2021/05/29 10:36:42;;;;;;;23.02;9.73;;;;;;;28.53;43.22;100804.91;4920920;29;20047;-62
2021/05/29 10:39:45;;;;;;;20.83;9.18;;;;;;;28.70;42.44;100799.72;4920506;29;20071;-62
2021/05/29 10:42:11;;;;;;;26.60;9.45;;;;;;;28.92;42.24;100803.56;4909128;29;20107;-62
2021/05/29 10:45:23;;;;;;;19.60;9.45;;;;;;;28.89;42.82;100790.81;4920380;29;20052;-62
2021/05/29 10:48:04;;;;;;;16.02;8.73;;;;;;;29.13;42.08;100792.25;4919184;29;20135;-62
2021/05/29 10:53:37;;;;;;;16.58;9.25;;;;;;;29.48;41.52;100794.47;4920401;29;20052;-62
2021/05/29 10:56:16;;;;;;;23.80;9.57;;;;;;;29.63;40.89;100791.66;4920220;29;20135;-62
2021/05/29 10:59:14;;;;;;;17.10;9.70;;;;;;;29.86;40.98;100785.56;4920264;29;20103;-62
2021/05/29 11:01:58;;;;;;;25.25;10.82;;;;;;;30.20;39.92;100797.59;4919785;29;20052;-62
2021/05/29 11:04:26;;;;;;;25.73;10.75;;;;;;;30.18;40.34;100789.34;4920504;29;20052;-62
2021/05/29 11:06:57;;;;;;;24.33;10.32;;;;;;;30.25;39.89;100785.66;4920268;29;20127;-62
2021/05/29 11:09:29;;;;;;;25.35;10.43;;;;;;;30.38;39.17;100786.09;4919990;29;20095;-62
2021/05/29 11:11:58;;;;;;;19.88;10.18;;;;;;;30.13;39.53;100781.09;4920243;29;20055;-62
2021/05/29 11:14:29;;;;;;;22.95;10.50;;;;;;;29.88;39.94;100780.22;4920258;29;20056;-62
2021/05/29 11:16:58;;;;;;;17.27;9.70;;;;;;;29.80;39.57;100784.31;4920022;29;20080;-61
2021/05/29 11:19:31;;;;;;;25.05;10.90;;;;;;;29.66;39.74;100764.97;4919982;29;20087;-62
2021/05/29 11:22:06;;;;;;;26.17;10.15;;;;;;;29.68;39.88;100771.13;4920528;29;20058;-61
2021/05/29 11:24:48;;;;;;;24.75;9.90;;;;;;;29.61;39.44;100785.50;4919897;29;20143;-61
2021/05/29 11:27:15;;;;;;;22.95;10.40;;;;;;;29.48;39.85;100785.00;4919688;29;20091;-61
2021/05/29 11:29:57;;;;;;;18.00;9.60;;;;;;;29.41;40.04;100777.16;4920027;29;20056;-61
2021/05/29 11:33:11;;;;;;;19.75;10.07;;;;;;;29.56;40.94;100777.22;4919606;29;20139;-61
2021/05/29 11:35:47;;;;;;;22.23;10.60;;;;;;;29.95;39.92;100769.56;4919934;29;20453;-61
2021/05/29 11:38:25;;;;;;;35.05;13.55;;;;;;;30.15;38.79;100755.59;4919543;29;20461;-61
2021/05/29 11:40:59;;;;;;;19.73;10.88;;;;;;;30.02;38.61;100768.75;4918930;29;20128;-62